Shawnee, OK

2:10 PM CDT on September 17, 2014 (GMT -0500)
Shawnee Municipal | Change Station
CLOSE
Current Station
Airport
Location: Shawnee,
Elevation: 1073 ft
Nearby Weather Stations

Elev 1073 ft 35.36 °N, 96.94 °W | Updated 15 minutes ago

Clear
Clear
91 °F
Feels Like 100 °F
N
7
Wind Variable Wind from SW

Today
High -- | Low -- °F
--% Chance of Precip.
Yesterday
High -- | Low -- °F
Precip. -- in
7:11 AM 7:31 PM
Waning Crescent, 34% visible
Pressure 29.94 in
Visibility 10.0 miles
Clouds Scattered Clouds 4100 ft
Heat Index 100 °F
Dew Point 73 °F
Humidity 55%
Rainfall 0.00 in
Snow Depth Not available.
UV 7 out of 12
Pollen 10.60 out of 12
Air Quality Not available.
Flu Activity Not available.
METAR KSNL 171855Z AUTO 22006KT 10SM SCT041 33/23 A2994 RMK AO2

More Conditions Fewer Conditions

Pressure 29.94 in
Visibility 10.0 miles
Clouds Scattered Clouds 4100 ft
Heat Index 100 °F
Dew Point 73 °F
Humidity 55%
Rainfall 0.00 in
Snow Depth Not available.
UV 7 out of 12
Pollen 10.60 out of 12
Air Quality Not available.
Flu Activity Not available.
METAR KSNL 171855Z AUTO 22006KT 10SM SCT041 33/23 A2994 RMK AO2

More Conditions Fewer Conditions

10-Day Weather Forecast

Almanac

Astronomy

Sep. 17, 2014 Rise Set
Actual Time 7:11 AM CDT 7:31 PM CDT
Civil Twilight 6:46 AM CDT 7:57 PM CDT
Nautical Twilight 6:16 AM CDT 8:26 PM CDT
Astronomical Twilight 5:46 AM CDT 8:57 PM CDT
Moon 1:22 AM CDT 3:33 PM CDT
Length of Visible Light 13h 10m
Length of Day
12h 19m
Tomorrow will be 2m 11s shorter.
Waning Crescent, 34% of the Moon is Illuminated
Today
Waning Crescent
Sep 24
New
Oct 1
First Quarter
Oct 8
Full
Oct 15
Last Quarter

Today's Extremes

State Highs State Lows

Community

WunderPhotos

Upload Photos

1,754,131 photos uploaded!

Nearby

Snow Depth

Station Depth Elevation
No new snow has been reported.

Earthquake Activity

City Distance Mag. Time & Date
Guthrie, Oklahoma 45 miles 2.5 11:33 AM CDT
2014-09-17
Perry, Oklahoma 62 miles 3.5 8:21 AM CDT
2014-09-17
Yale, Oklahoma 57 miles 3.3 7:02 AM CDT
2014-09-17
Yale, Oklahoma 58 miles 3.0 6:58 AM CDT
2014-09-17
Minimum magnitude displayed is 2.5.

Coastal Water Temperatures

Place Temperature
No Stations Reporting

Nearby Weather Stations